Enrico Ievoli — IBKI — position and weather

sailwx.info

Track history (hours):
 
Tides and Currents Weather Stations Pressure Air Temp Water Temp Dewpoint Dewpoint Depression Visibility Wind Speed Wind Dir Waves Ship Positions

Enrico Ievoli

Last reported at 2018-Feb-25 17:30 UTC. Time now 2018-Feb-25 17:54 UTC.
Position N 37°32' E 015°43'.

Length 138 m; draft 6.7 m.

Type: Tanker. MMSI: 247597000.

Date/timePositionNaut miles runAvg speedWind from/ knotsBaromVisibWave heightAir tempDewpointWater temp
2018-Feb-25 17:30N 37°32' E 015°43'713.6
2018-Feb-25 17:00N 37°36' E 015°50'713.2
2018-Feb-25 16:30N 37°41' E 015°56'713.2
2018-Feb-25 16:00N 37°45' E 016°02'16413.9
2018-Feb-25 04:11N 39°44' E 018°28'314.0
2018-Feb-25 03:59N 39°46' E 018°30'714.0
2018-Feb-25 03:30N 39°53' E 018°33'714.0
2018-Feb-25 03:00N 39°60' E 018°36'32912.4
2018-Feb-24 00:28N 44°24' E 014°12'510.8
2018-Feb-23 23:59N 44°28' E 014°07'510.5
2018-Feb-23 23:30N 44°31' E 014°02'610.3
2018-Feb-23 22:56N 44°35' E 013°55'4 9.9
2018-Feb-23 22:30N 44°37' E 013°50'6 9.8
2018-Feb-23 21:55N 44°41' E 013°45'4 9.7
2018-Feb-23 21:30N 44°45' E 013°42'5 9.9
2018-Feb-23 21:00N 44°49' E 013°38'510.0
2018-Feb-23 20:30N 44°53' E 013°34'510.2
2018-Feb-23 20:00N 44°57' E 013°30'510.4
2018-Feb-23 19:30N 45°02' E 013°26'510.6
2018-Feb-23 19:00N 45°06' E 013°22'612.3
2018-Feb-23 18:30N 45°12' E 013°21'5 9.8
2018-Feb-23 18:00N 45°14' E 013°14'611.6
2018-Feb-23 17:30N 45°14' E 013°06'611.4
2018-Feb-23 17:00N 45°14' E 012°58'611.1
2018-Feb-23 16:30N 45°14' E 012°50'510.7
2018-Feb-23 16:00N 45°14' E 012°43'510.6
2018-Feb-23 15:30N 45°15' E 012°35'510.4
2018-Feb-23 15:00N 45°16' E 012°28'611.3
2018-Feb-23 14:30N 45°20' E 012°22'510.1
2018-Feb-23 14:00N 45°21' E 012°15'4 9.1
2018-Feb-23 13:30N 45°26' E 012°16'2 2.9
2018-Feb-23 12:58N 45°26' E 012°13'0 0.0
2018-Feb-23 12:28N 45°26' E 012°13'0 0.0
2018-Feb-23 11:58N 45°26' E 012°13'0 0.0
2018-Feb-23 11:28N 45°26' E 012°13'0 0.0
2018-Feb-23 10:58N 45°26' E 012°13'0 0.0
2018-Feb-23 10:28N 45°26' E 012°13'0 0.0
2018-Feb-23 09:58N 45°26' E 012°13'0 0.0
2018-Feb-23 09:28N 45°26' E 012°13'0 0.0
2018-Feb-23 08:58N 45°26' E 012°13'0 0.0
2018-Feb-23 08:31N 45°26' E 012°13'0 0.0
2018-Feb-23 07:58N 45°26' E 012°13'0 0.0
2018-Feb-23 07:30N 45°26' E 012°13'0 0.0
2018-Feb-23 07:01N 45°26' E 012°13'0 0.0
2018-Feb-23 06:30N 45°26' E 012°13'0 0.0
2018-Feb-23 06:00N 45°26' E 012°13'0 0.0
2018-Feb-23 05:28N 45°26' E 012°13'0 0.0
2018-Feb-23 05:00N 45°26' E 012°13'0 0.0
2018-Feb-23 04:30N 45°26' E 012°13'0 0.0
2018-Feb-23 04:00N 45°26' E 012°13'0 0.0
2018-Feb-23 03:30N 45°26' E 012°13'0 0.0
2018-Feb-23 03:00N 45°26' E 012°13'0 0.0
2018-Feb-23 02:30N 45°26' E 012°13'0 0.0
2018-Feb-23 02:00N 45°26' E 012°13'0 0.0
2018-Feb-23 01:30N 45°26' E 012°13'0 0.0
2018-Feb-23 00:57N 45°26' E 012°13'0 0.0
2018-Feb-23 00:30N 45°26' E 012°13'0 0.0
2018-Feb-23 00:00N 45°26' E 012°13'0 0.0
2018-Feb-22 23:30N 45°26' E 012°13'0 0.0
2018-Feb-22 23:00N 45°26' E 012°13'0 0.0
2018-Feb-22 22:30N 45°26' E 012°13'0 0.0
2018-Feb-22 22:00N 45°26' E 012°13'0 0.0
2018-Feb-22 21:30N 45°26' E 012°13'0 0.0
2018-Feb-22 21:00N 45°26' E 012°13'0 0.0
2018-Feb-22 20:30N 45°26' E 012°13'0 0.0
2018-Feb-22 20:00N 45°26' E 012°13'0 0.0
2018-Feb-22 19:30N 45°26' E 012°13'0 0.0
2018-Feb-22 19:00N 45°26' E 012°13'0 0.0
2018-Feb-22 18:30N 45°26' E 012°13'0 0.0
2018-Feb-22 18:00N 45°26' E 012°13'0 0.0
2018-Feb-22 17:30N 45°26' E 012°13'0 0.0
2018-Feb-22 17:00N 45°26' E 012°13'0 0.0
2018-Feb-22 16:30N 45°26' E 012°13'0 0.0
2018-Feb-22 16:00N 45°26' E 012°13'0 0.0
2018-Feb-22 15:30N 45°26' E 012°13'0 0.0
2018-Feb-22 15:00N 45°26' E 012°13'0 0.0
2018-Feb-22 14:30N 45°26' E 012°13'0 0.0
2018-Feb-22 14:00N 45°26' E 012°13'0 0.0
2018-Feb-22 13:30N 45°26' E 012°13'0 0.0
2018-Feb-22 13:00N 45°26' E 012°13'0 0.0
2018-Feb-22 12:30N 45°26' E 012°13'0 0.0
2018-Feb-22 12:00N 45°26' E 012°13'0 0.0
2018-Feb-22 11:30N 45°26' E 012°13'0 0.0
2018-Feb-22 11:00N 45°26' E 012°13'0 0.0
2018-Feb-22 10:30N 45°26' E 012°13'0 0.0
2018-Feb-22 10:00N 45°26' E 012°13'0 0.0
2018-Feb-22 09:30N 45°26' E 012°13'0 0.0
2018-Feb-22 09:00N 45°26' E 012°13'0 0.0
2018-Feb-22 08:30N 45°26' E 012°13'0 0.0
2018-Feb-22 08:00N 45°26' E 012°13'0 0.0
2018-Feb-22 07:30N 45°26' E 012°13'0 0.0
2018-Feb-22 06:54N 45°26' E 012°13'0 0.0
2018-Feb-22 06:30N 45°26' E 012°13'0 0.0
2018-Feb-22 06:00N 45°26' E 012°13'0 0.0
2018-Feb-22 05:30N 45°26' E 012°13'0 0.0
2018-Feb-22 05:00N 45°26' E 012°13'0 0.0
2018-Feb-22 04:30N 45°26' E 012°13'0 0.0
2018-Feb-22 04:00N 45°26' E 012°13'0 0.0
2018-Feb-22 03:30N 45°26' E 012°13'0 0.0
2018-Feb-22 03:00N 45°26' E 012°13'0 0.0
2018-Feb-22 02:30N 45°26' E 012°13'0 0.0
2018-Feb-22 02:00N 45°26' E 012°13'0 0.0
2018-Feb-22 01:30N 45°26' E 012°13'0 0.0
2018-Feb-22 01:00N 45°26' E 012°13'0 0.0
2018-Feb-22 00:30N 45°26' E 012°13'0 0.0
2018-Feb-22 00:00N 45°26' E 012°13'0 0.0
2018-Feb-21 23:30N 45°26' E 012°13'0 0.0
2018-Feb-21 23:00N 45°26' E 012°13'0 0.0
2018-Feb-21 22:30N 45°26' E 012°13'0 0.0
2018-Feb-21 22:00N 45°26' E 012°13'0 0.0
2018-Feb-21 21:30N 45°26' E 012°13'0 0.0
2018-Feb-21 21:00N 45°26' E 012°13'0 0.0
2018-Feb-21 20:30N 45°26' E 012°13'0 0.0
2018-Feb-21 19:57N 45°26' E 012°13'0 0.0
2018-Feb-21 19:30N 45°26' E 012°13'0 0.0
2018-Feb-21 19:00N 45°26' E 012°13'0 0.0
2018-Feb-21 18:30N 45°26' E 012°13'0 0.0
2018-Feb-21 18:00N 45°26' E 012°13'0 0.0
2018-Feb-21 17:30N 45°26' E 012°13'0 0.0
2018-Feb-21 16:59N 45°26' E 012°13'0 0.0
2018-Feb-21 16:29N 45°26' E 012°13'0 0.0
2018-Feb-21 15:59N 45°26' E 012°13'0 0.0
2018-Feb-21 15:29N 45°26' E 012°13'0 0.5
2018-Feb-21 15:00N 45°26' E 012°13'2 4.1
2018-Feb-21 14:30N 45°25' E 012°16'5 8.9
2018-Feb-21 14:00N 45°21' E 012°16'611.2
2018-Feb-21 13:29N 45°20' E 012°24'611.3
2018-Feb-21 12:59N 45°17' E 012°31'612.1
2018-Feb-21 12:30N 45°14' E 012°38'612.1
2018-Feb-21 12:00N 45°10' E 012°45'611.8
2018-Feb-21 11:30N 45°07' E 012°52'612.1
2018-Feb-21 11:00N 45°04' E 012°59'612.3
2018-Feb-21 10:30N 45°01' E 013°07'612.6
2018-Feb-21 10:00N 44°58' E 013°15'612.6
2018-Feb-21 09:30N 44°55' E 013°23'612.8
2018-Feb-21 09:00N 44°49' E 013°27'612.5
2018-Feb-21 08:30N 44°44' E 013°32'36212.8
2018-Feb-20 04:07N 40°02' E 018°39'213.1
2018-Feb-20 04:00N 40°00' E 018°39'612.9
2018-Feb-20 03:30N 39°54' E 018°37'713.2
2018-Feb-20 03:01N 39°48' E 018°34'10113.1
2018-Feb-19 19:20N 38°39' E 016°60'6813.5
2018-Feb-19 14:19N 37°47' E 016°04'514.0
2018-Feb-19 14:00N 37°44' E 015°60'714.1
2018-Feb-19 13:30N 37°40' E 015°53'714.2
2018-Feb-19 13:00N 37°34' E 015°46'713.6
2018-Feb-19 12:30N 37°30' E 015°40'1513.2
2018-Feb-19 11:23N 37°20' E 015°27'  
2018-Feb-17 06:22N 37°20' E 015°27'614.2
2018-Feb-17 05:57N 37°24' E 015°33'614.3
2018-Feb-17 05:30N 37°28' E 015°38'714.5
2018-Feb-17 05:00N 37°33' E 015°45'914.0
2018-Feb-17 04:21N 37°40' E 015°53'514.0
2018-Feb-17 04:00N 37°43' E 015°58'7414.0
2018-Feb-16 22:43N 38°38' E 016°60'5514.6
2018-Feb-16 18:57N 39°18' E 017°49'714.6
2018-Feb-16 18:28N 39°23' E 017°56'3814.6
2018-Feb-16 15:51N 39°49' E 018°32'515.1
2018-Feb-16 15:30N 39°54' E 018°33'  
Track history (hours):
 
Tides and Currents Weather Stations Pressure Air Temp Water Temp Dewpoint Dewpoint Depression Visibility Wind Speed Wind Dir Waves Ship Positions

Enrico Ievoli

Last reported at 2018-Feb-25 17:30 UTC. Time now 2018-Feb-25 17:54 UTC.
Position N 37°32' E 015°43'.

Length 138 m; draft 6.7 m.

Type: Tanker. MMSI: 247597000.

Date/timePositionNaut miles runAvg speedWind from/ knotsBaromVisibWave heightAir tempDewpointWater temp
2018-Feb-25 17:30N 37°32' E 015°43'713.6
2018-Feb-25 17:00N 37°36' E 015°50'713.2
2018-Feb-25 16:30N 37°41' E 015°56'713.2
2018-Feb-25 16:00N 37°45' E 016°02'16413.9
2018-Feb-25 04:11N 39°44' E 018°28'314.0
2018-Feb-25 03:59N 39°46' E 018°30'714.0
2018-Feb-25 03:30N 39°53' E 018°33'714.0
2018-Feb-25 03:00N 39°60' E 018°36'32912.4
2018-Feb-24 00:28N 44°24' E 014°12'510.8
2018-Feb-23 23:59N 44°28' E 014°07'510.5
2018-Feb-23 23:30N 44°31' E 014°02'610.3
2018-Feb-23 22:56N 44°35' E 013°55'4 9.9
2018-Feb-23 22:30N 44°37' E 013°50'6 9.8
2018-Feb-23 21:55N 44°41' E 013°45'4 9.7
2018-Feb-23 21:30N 44°45' E 013°42'5 9.9
2018-Feb-23 21:00N 44°49' E 013°38'510.0
2018-Feb-23 20:30N 44°53' E 013°34'510.2
2018-Feb-23 20:00N 44°57' E 013°30'510.4
2018-Feb-23 19:30N 45°02' E 013°26'510.6
2018-Feb-23 19:00N 45°06' E 013°22'612.3
2018-Feb-23 18:30N 45°12' E 013°21'5 9.8
2018-Feb-23 18:00N 45°14' E 013°14'611.6
2018-Feb-23 17:30N 45°14' E 013°06'611.4
2018-Feb-23 17:00N 45°14' E 012°58'611.1
2018-Feb-23 16:30N 45°14' E 012°50'510.7
2018-Feb-23 16:00N 45°14' E 012°43'510.6
2018-Feb-23 15:30N 45°15' E 012°35'510.4
2018-Feb-23 15:00N 45°16' E 012°28'611.3
2018-Feb-23 14:30N 45°20' E 012°22'510.1
2018-Feb-23 14:00N 45°21' E 012°15'4 9.1
2018-Feb-23 13:30N 45°26' E 012°16'2 2.9
2018-Feb-23 12:58N 45°26' E 012°13'0 0.0
2018-Feb-23 12:28N 45°26' E 012°13'0 0.0
2018-Feb-23 11:58N 45°26' E 012°13'0 0.0
2018-Feb-23 11:28N 45°26' E 012°13'0 0.0
2018-Feb-23 10:58N 45°26' E 012°13'0 0.0
2018-Feb-23 10:28N 45°26' E 012°13'0 0.0
2018-Feb-23 09:58N 45°26' E 012°13'0 0.0
2018-Feb-23 09:28N 45°26' E 012°13'0 0.0
2018-Feb-23 08:58N 45°26' E 012°13'0 0.0
2018-Feb-23 08:31N 45°26' E 012°13'0 0.0
2018-Feb-23 07:58N 45°26' E 012°13'0 0.0
2018-Feb-23 07:30N 45°26' E 012°13'0 0.0
2018-Feb-23 07:01N 45°26' E 012°13'0 0.0
2018-Feb-23 06:30N 45°26' E 012°13'0 0.0
2018-Feb-23 06:00N 45°26' E 012°13'0 0.0
2018-Feb-23 05:28N 45°26' E 012°13'0 0.0
2018-Feb-23 05:00N 45°26' E 012°13'0 0.0
2018-Feb-23 04:30N 45°26' E 012°13'0 0.0
2018-Feb-23 04:00N 45°26' E 012°13'0 0.0
2018-Feb-23 03:30N 45°26' E 012°13'0 0.0
2018-Feb-23 03:00N 45°26' E 012°13'0 0.0
2018-Feb-23 02:30N 45°26' E 012°13'0 0.0
2018-Feb-23 02:00N 45°26' E 012°13'0 0.0
2018-Feb-23 01:30N 45°26' E 012°13'0 0.0
2018-Feb-23 00:57N 45°26' E 012°13'0 0.0
2018-Feb-23 00:30N 45°26' E 012°13'0 0.0
2018-Feb-23 00:00N 45°26' E 012°13'0 0.0
2018-Feb-22 23:30N 45°26' E 012°13'0 0.0
2018-Feb-22 23:00N 45°26' E 012°13'0 0.0
2018-Feb-22 22:30N 45°26' E 012°13'0 0.0
2018-Feb-22 22:00N 45°26' E 012°13'0 0.0
2018-Feb-22 21:30N 45°26' E 012°13'0 0.0
2018-Feb-22 21:00N 45°26' E 012°13'0 0.0
2018-Feb-22 20:30N 45°26' E 012°13'0 0.0
2018-Feb-22 20:00N 45°26' E 012°13'0 0.0
2018-Feb-22 19:30N 45°26' E 012°13'0 0.0
2018-Feb-22 19:00N 45°26' E 012°13'0 0.0
2018-Feb-22 18:30N 45°26' E 012°13'0 0.0
2018-Feb-22 18:00N 45°26' E 012°13'0 0.0
2018-Feb-22 17:30N 45°26' E 012°13'0 0.0
2018-Feb-22 17:00N 45°26' E 012°13'0 0.0
2018-Feb-22 16:30N 45°26' E 012°13'0 0.0
2018-Feb-22 16:00N 45°26' E 012°13'0 0.0
2018-Feb-22 15:30N 45°26' E 012°13'0 0.0
2018-Feb-22 15:00N 45°26' E 012°13'0 0.0
2018-Feb-22 14:30N 45°26' E 012°13'0 0.0
2018-Feb-22 14:00N 45°26' E 012°13'0 0.0
2018-Feb-22 13:30N 45°26' E 012°13'0 0.0
2018-Feb-22 13:00N 45°26' E 012°13'0 0.0
2018-Feb-22 12:30N 45°26' E 012°13'0 0.0
2018-Feb-22 12:00N 45°26' E 012°13'0 0.0
2018-Feb-22 11:30N 45°26' E 012°13'0 0.0
2018-Feb-22 11:00N 45°26' E 012°13'0 0.0
2018-Feb-22 10:30N 45°26' E 012°13'0 0.0
2018-Feb-22 10:00N 45°26' E 012°13'0 0.0
2018-Feb-22 09:30N 45°26' E 012°13'0 0.0
2018-Feb-22 09:00N 45°26' E 012°13'0 0.0
2018-Feb-22 08:30N 45°26' E 012°13'0 0.0
2018-Feb-22 08:00N 45°26' E 012°13'0 0.0
2018-Feb-22 07:30N 45°26' E 012°13'0 0.0
2018-Feb-22 06:54N 45°26' E 012°13'0 0.0
2018-Feb-22 06:30N 45°26' E 012°13'0 0.0
2018-Feb-22 06:00N 45°26' E 012°13'0 0.0
2018-Feb-22 05:30N 45°26' E 012°13'0 0.0
2018-Feb-22 05:00N 45°26' E 012°13'0 0.0
2018-Feb-22 04:30N 45°26' E 012°13'0 0.0
2018-Feb-22 04:00N 45°26' E 012°13'0 0.0
2018-Feb-22 03:30N 45°26' E 012°13'0 0.0
2018-Feb-22 03:00N 45°26' E 012°13'0 0.0
2018-Feb-22 02:30N 45°26' E 012°13'0 0.0
2018-Feb-22 02:00N 45°26' E 012°13'0 0.0
2018-Feb-22 01:30N 45°26' E 012°13'0 0.0
2018-Feb-22 01:00N 45°26' E 012°13'0 0.0
2018-Feb-22 00:30N 45°26' E 012°13'0 0.0
2018-Feb-22 00:00N 45°26' E 012°13'0 0.0
2018-Feb-21 23:30N 45°26' E 012°13'0 0.0
2018-Feb-21 23:00N 45°26' E 012°13'0 0.0
2018-Feb-21 22:30N 45°26' E 012°13'0 0.0
2018-Feb-21 22:00N 45°26' E 012°13'0 0.0
2018-Feb-21 21:30N 45°26' E 012°13'0 0.0
2018-Feb-21 21:00N 45°26' E 012°13'0 0.0
2018-Feb-21 20:30N 45°26' E 012°13'0 0.0
2018-Feb-21 19:57N 45°26' E 012°13'0 0.0
2018-Feb-21 19:30N 45°26' E 012°13'0 0.0
2018-Feb-21 19:00N 45°26' E 012°13'0 0.0
2018-Feb-21 18:30N 45°26' E 012°13'0 0.0
2018-Feb-21 18:00N 45°26' E 012°13'0 0.0
2018-Feb-21 17:30N 45°26' E 012°13'0 0.0
2018-Feb-21 16:59N 45°26' E 012°13'0 0.0
2018-Feb-21 16:29N 45°26' E 012°13'0 0.0
2018-Feb-21 15:59N 45°26' E 012°13'0 0.0
2018-Feb-21 15:29N 45°26' E 012°13'0 0.5
2018-Feb-21 15:00N 45°26' E 012°13'2 4.1
2018-Feb-21 14:30N 45°25' E 012°16'5 8.9
2018-Feb-21 14:00N 45°21' E 012°16'611.2
2018-Feb-21 13:29N 45°20' E 012°24'611.3
2018-Feb-21 12:59N 45°17' E 012°31'612.1
2018-Feb-21 12:30N 45°14' E 012°38'612.1
2018-Feb-21 12:00N 45°10' E 012°45'611.8
2018-Feb-21 11:30N 45°07' E 012°52'612.1
2018-Feb-21 11:00N 45°04' E 012°59'612.3
2018-Feb-21 10:30N 45°01' E 013°07'612.6
2018-Feb-21 10:00N 44°58' E 013°15'612.6
2018-Feb-21 09:30N 44°55' E 013°23'612.8
2018-Feb-21 09:00N 44°49' E 013°27'612.5
2018-Feb-21 08:30N 44°44' E 013°32'36212.8
2018-Feb-20 04:07N 40°02' E 018°39'213.1
2018-Feb-20 04:00N 40°00' E 018°39'612.9
2018-Feb-20 03:30N 39°54' E 018°37'713.2
2018-Feb-20 03:01N 39°48' E 018°34'10113.1
2018-Feb-19 19:20N 38°39' E 016°60'6813.5
2018-Feb-19 14:19N 37°47' E 016°04'514.0
2018-Feb-19 14:00N 37°44' E 015°60'714.1
2018-Feb-19 13:30N 37°40' E 015°53'714.2
2018-Feb-19 13:00N 37°34' E 015°46'713.6
2018-Feb-19 12:30N 37°30' E 015°40'1513.2
2018-Feb-19 11:23N 37°20' E 015°27'  
2018-Feb-17 06:22N 37°20' E 015°27'614.2
2018-Feb-17 05:57N 37°24' E 015°33'614.3
2018-Feb-17 05:30N 37°28' E 015°38'714.5
2018-Feb-17 05:00N 37°33' E 015°45'914.0
2018-Feb-17 04:21N 37°40' E 015°53'514.0
2018-Feb-17 04:00N 37°43' E 015°58'7414.0
2018-Feb-16 22:43N 38°38' E 016°60'5514.6
2018-Feb-16 18:57N 39°18' E 017°49'714.6
2018-Feb-16 18:28N 39°23' E 017°56'3814.6
2018-Feb-16 15:51N 39°49' E 018°32'515.1
2018-Feb-16 15:30N 39°54' E 018°33'  

Dump ship's entire track history